sensor_id;sensor_type;location;lat;lon;timestamp;temperature;humidity
28763;DHT22;15918;51.270;6.522;2023-01-04T00:01:15;11.20;68.70
28763;DHT22;15918;51.270;6.522;2023-01-04T00:03:41;11.10;68.70
28763;DHT22;15918;51.270;6.522;2023-01-04T00:06:09;11.20;68.80
28763;DHT22;15918;51.270;6.522;2023-01-04T00:08:36;11.10;68.70
28763;DHT22;15918;51.270;6.522;2023-01-04T00:11:22;11.20;68.80
28763;DHT22;15918;51.270;6.522;2023-01-04T00:13:50;11.20;68.80
28763;DHT22;15918;51.270;6.522;2023-01-04T00:16:18;11.10;68.90
28763;DHT22;15918;51.270;6.522;2023-01-04T00:18:44;11.20;69.00
28763;DHT22;15918;51.270;6.522;2023-01-04T00:21:13;11.20;69.00
28763;DHT22;15918;51.270;6.522;2023-01-04T00:23:40;11.20;69.00
28763;DHT22;15918;51.270;6.522;2023-01-04T00:26:07;11.20;69.20
28763;DHT22;15918;51.270;6.522;2023-01-04T00:28:33;11.20;69.20
28763;DHT22;15918;51.270;6.522;2023-01-04T00:31:06;11.20;69.30
28763;DHT22;15918;51.270;6.522;2023-01-04T00:33:33;11.20;69.30
28763;DHT22;15918;51.270;6.522;2023-01-04T00:36:12;11.20;69.30
28763;DHT22;15918;51.270;6.522;2023-01-04T00:38:39;11.20;69.30
28763;DHT22;15918;51.270;6.522;2023-01-04T00:41:06;11.20;70.20
28763;DHT22;15918;51.270;6.522;2023-01-04T00:43:32;11.20;69.60
28763;DHT22;15918;51.270;6.522;2023-01-04T00:45:58;11.30;69.70
28763;DHT22;15918;51.270;6.522;2023-01-04T00:48:25;11.20;69.60
28763;DHT22;15918;51.270;6.522;2023-01-04T00:50:51;11.20;69.80
28763;DHT22;15918;51.270;6.522;2023-01-04T00:53:17;11.20;69.80
28763;DHT22;15918;51.270;6.522;2023-01-04T00:55:43;11.30;70.00
28763;DHT22;15918;51.270;6.522;2023-01-04T00:58:09;11.20;70.10
28763;DHT22;15918;51.270;6.522;2023-01-04T01:00:35;11.30;70.30
28763;DHT22;15918;51.270;6.522;2023-01-04T01:03:01;11.30;70.40
28763;DHT22;15918;51.270;6.522;2023-01-04T01:05:27;11.30;70.60
28763;DHT22;15918;51.270;6.522;2023-01-04T01:07:52;11.30;70.60
28763;DHT22;15918;51.270;6.522;2023-01-04T01:10:18;11.30;70.70
28763;DHT22;15918;51.270;6.522;2023-01-04T01:12:44;11.30;70.80
28763;DHT22;15918;51.270;6.522;2023-01-04T01:15:10;11.30;70.90
28763;DHT22;15918;51.270;6.522;2023-01-04T01:17:36;11.30;71.00
28763;DHT22;15918;51.270;6.522;2023-01-04T01:20:03;11.30;71.00
28763;DHT22;15918;51.270;6.522;2023-01-04T01:22:30;11.30;71.20
28763;DHT22;15918;51.270;6.522;2023-01-04T01:24:56;11.40;71.30
28763;DHT22;15918;51.270;6.522;2023-01-04T01:27:21;11.30;71.20
28763;DHT22;15918;51.270;6.522;2023-01-04T01:29:47;11.40;71.30
28763;DHT22;15918;51.270;6.522;2023-01-04T01:32:12;11.30;71.40
28763;DHT22;15918;51.270;6.522;2023-01-04T01:34:38;11.30;71.50
28763;DHT22;15918;51.270;6.522;2023-01-04T01:37:03;11.30;71.60
28763;DHT22;15918;51.270;6.522;2023-01-04T01:39:29;11.30;71.60
28763;DHT22;15918;51.270;6.522;2023-01-04T01:41:54;11.30;71.60
28763;DHT22;15918;51.270;6.522;2023-01-04T01:47:16;11.30;72.20
28763;DHT22;15918;51.270;6.522;2023-01-04T01:49:45;11.30;72.00
28763;DHT22;15918;51.270;6.522;2023-01-04T01:52:14;11.30;72.10
28763;DHT22;15918;51.270;6.522;2023-01-04T01:54:51;11.40;72.20
28763;DHT22;15918;51.270;6.522;2023-01-04T01:57:22;11.40;72.30
28763;DHT22;15918;51.270;6.522;2023-01-04T01:59:50;11.40;72.50
28763;DHT22;15918;51.270;6.522;2023-01-04T02:02:17;11.40;72.60
28763;DHT22;15918;51.270;6.522;2023-01-04T02:04:46;11.30;72.70
28763;DHT22;15918;51.270;6.522;2023-01-04T02:07:15;11.40;72.90
28763;DHT22;15918;51.270;6.522;2023-01-04T02:09:43;11.40;72.90
28763;DHT22;15918;51.270;6.522;2023-01-04T02:12:12;11.40;72.90
28763;DHT22;15918;51.270;6.522;2023-01-04T02:14:39;11.40;73.10
28763;DHT22;15918;51.270;6.522;2023-01-04T02:20:02;11.40;73.20
28763;DHT22;15918;51.270;6.522;2023-01-04T02:28:02;11.40;73.40
28763;DHT22;15918;51.270;6.522;2023-01-04T02:38:52;11.40;73.90
28763;DHT22;15918;51.270;6.522;2023-01-04T02:41:41;11.40;73.90
28763;DHT22;15918;51.270;6.522;2023-01-04T02:44:14;11.40;74.00
28763;DHT22;15918;51.270;6.522;2023-01-04T02:47:03;11.40;74.20
28763;DHT22;15918;51.270;6.522;2023-01-04T02:49:30;11.40;74.20
28763;DHT22;15918;51.270;6.522;2023-01-04T02:52:14;11.40;74.30
28763;DHT22;15918;51.270;6.522;2023-01-04T02:54:41;11.40;74.30
28763;DHT22;15918;51.270;6.522;2023-01-04T03:00:27;11.50;74.60
28763;DHT22;15918;51.270;6.522;2023-01-04T03:03:18;11.40;74.60
28763;DHT22;15918;51.270;6.522;2023-01-04T03:06:16;11.50;74.80
28763;DHT22;15918;51.270;6.522;2023-01-04T03:09:20;11.40;74.90
28763;DHT22;15918;51.270;6.522;2023-01-04T03:11:59;11.50;74.90
28763;DHT22;15918;51.270;6.522;2023-01-04T03:14:54;11.40;75.00
28763;DHT22;15918;51.270;6.522;2023-01-04T03:17:25;11.40;75.20
28763;DHT22;15918;51.270;6.522;2023-01-04T03:19:52;11.50;75.30
28763;DHT22;15918;51.270;6.522;2023-01-04T03:22:31;11.50;75.20
28763;DHT22;15918;51.270;6.522;2023-01-04T03:25:18;11.50;75.30
28763;DHT22;15918;51.270;6.522;2023-01-04T03:28:06;11.50;75.30
28763;DHT22;15918;51.270;6.522;2023-01-04T03:31:03;11.50;75.50
28763;DHT22;15918;51.270;6.522;2023-01-04T03:33:49;11.50;75.50
28763;DHT22;15918;51.270;6.522;2023-01-04T03:37:13;11.60;75.60
28763;DHT22;15918;51.270;6.522;2023-01-04T03:43:06;11.50;75.60
28763;DHT22;15918;51.270;6.522;2023-01-04T03:46:09;11.50;75.80
28763;DHT22;15918;51.270;6.522;2023-01-04T03:49:27;11.50;75.80
28763;DHT22;15918;51.270;6.522;2023-01-04T03:51:53;11.50;75.90
28763;DHT22;15918;51.270;6.522;2023-01-04T03:54:24;11.50;75.90
28763;DHT22;15918;51.270;6.522;2023-01-04T03:56:52;11.60;75.90
28763;DHT22;15918;51.270;6.522;2023-01-04T03:59:18;11.60;75.90
28763;DHT22;15918;51.270;6.522;2023-01-04T04:01:47;11.60;76.00
28763;DHT22;15918;51.270;6.522;2023-01-04T04:04:12;11.60;76.10
28763;DHT22;15918;51.270;6.522;2023-01-04T04:06:57;11.60;76.10
28763;DHT22;15918;51.270;6.522;2023-01-04T04:09:41;11.60;76.10
28763;DHT22;15918;51.270;6.522;2023-01-04T04:12:06;11.60;76.10
28763;DHT22;15918;51.270;6.522;2023-01-04T04:14:32;11.60;76.20
28763;DHT22;15918;51.270;6.522;2023-01-04T04:16:58;11.70;76.30
28763;DHT22;15918;51.270;6.522;2023-01-04T04:19:23;11.70;76.40
28763;DHT22;15918;51.270;6.522;2023-01-04T04:21:49;11.70;76.40
28763;DHT22;15918;51.270;6.522;2023-01-04T04:24:23;11.70;76.50
28763;DHT22;15918;51.270;6.522;2023-01-04T04:26:50;11.70;76.60
28763;DHT22;15918;51.270;6.522;2023-01-04T04:29:16;11.70;76.80
28763;DHT22;15918;51.270;6.522;2023-01-04T04:31:42;11.70;76.80
28763;DHT22;15918;51.270;6.522;2023-01-04T04:34:09;11.70;76.90
28763;DHT22;15918;51.270;6.522;2023-01-04T04:36:35;11.70;77.00
28763;DHT22;15918;51.270;6.522;2023-01-04T04:39:00;11.70;77.10
28763;DHT22;15918;51.270;6.522;2023-01-04T04:41:26;11.70;77.10
28763;DHT22;15918;51.270;6.522;2023-01-04T04:44:09;11.70;77.10
28763;DHT22;15918;51.270;6.522;2023-01-04T04:46:35;11.70;77.20
28763;DHT22;15918;51.270;6.522;2023-01-04T04:49:01;11.70;77.20
28763;DHT22;15918;51.270;6.522;2023-01-04T04:51:27;11.70;77.20
28763;DHT22;15918;51.270;6.522;2023-01-04T04:53:53;11.70;77.20
28763;DHT22;15918;51.270;6.522;2023-01-04T04:56:19;11.70;77.20
28763;DHT22;15918;51.270;6.522;2023-01-04T04:58:44;11.70;77.20
28763;DHT22;15918;51.270;6.522;2023-01-04T05:01:10;11.70;77.20
28763;DHT22;15918;51.270;6.522;2023-01-04T05:03:36;11.80;77.30
28763;DHT22;15918;51.270;6.522;2023-01-04T05:06:02;11.80;77.30
28763;DHT22;15918;51.270;6.522;2023-01-04T05:08:27;11.80;78.10
28763;DHT22;15918;51.270;6.522;2023-01-04T05:10:53;11.80;77.30
28763;DHT22;15918;51.270;6.522;2023-01-04T05:13:19;11.80;77.30
28763;DHT22;15918;51.270;6.522;2023-01-04T05:15:46;11.80;77.30
28763;DHT22;15918;51.270;6.522;2023-01-04T05:18:14;11.80;77.40
28763;DHT22;15918;51.270;6.522;2023-01-04T05:20:40;11.80;77.30
28763;DHT22;15918;51.270;6.522;2023-01-04T05:23:07;11.80;77.20
28763;DHT22;15918;51.270;6.522;2023-01-04T05:25:34;11.80;77.30
28763;DHT22;15918;51.270;6.522;2023-01-04T05:28:00;11.80;77.30
28763;DHT22;15918;51.270;6.522;2023-01-04T05:30:25;11.80;77.30
28763;DHT22;15918;51.270;6.522;2023-01-04T05:33:10;11.80;77.40
28763;DHT22;15918;51.270;6.522;2023-01-04T05:35:35;11.80;77.40
28763;DHT22;15918;51.270;6.522;2023-01-04T05:38:01;11.80;77.50
28763;DHT22;15918;51.270;6.522;2023-01-04T05:40:27;11.90;77.50
28763;DHT22;15918;51.270;6.522;2023-01-04T05:42:53;11.90;77.40
28763;DHT22;15918;51.270;6.522;2023-01-04T05:45:18;11.90;77.50
28763;DHT22;15918;51.270;6.522;2023-01-04T05:47:48;11.90;77.40
28763;DHT22;15918;51.270;6.522;2023-01-04T05:50:15;11.90;77.50
28763;DHT22;15918;51.270;6.522;2023-01-04T05:52:41;11.90;77.50
28763;DHT22;15918;51.270;6.522;2023-01-04T05:55:06;11.90;77.40
28763;DHT22;15918;51.270;6.522;2023-01-04T05:57:32;11.90;77.40
28763;DHT22;15918;51.270;6.522;2023-01-04T05:59:58;11.90;77.40
28763;DHT22;15918;51.270;6.522;2023-01-04T06:02:26;11.90;77.40
28763;DHT22;15918;51.270;6.522;2023-01-04T06:04:52;11.90;77.50
28763;DHT22;15918;51.270;6.522;2023-01-04T06:07:18;11.90;77.50
28763;DHT22;15918;51.270;6.522;2023-01-04T06:09:44;11.90;77.50
28763;DHT22;15918;51.270;6.522;2023-01-04T06:12:09;11.90;77.50
28763;DHT22;15918;51.270;6.522;2023-01-04T06:14:35;11.90;77.60
28763;DHT22;15918;51.270;6.522;2023-01-04T06:17:01;12.00;77.80
28763;DHT22;15918;51.270;6.522;2023-01-04T06:19:26;12.00;78.50
28763;DHT22;15918;51.270;6.522;2023-01-04T06:21:52;12.00;77.70
28763;DHT22;15918;51.270;6.522;2023-01-04T06:24:18;12.00;77.70
28763;DHT22;15918;51.270;6.522;2023-01-04T06:26:44;12.00;77.70
28763;DHT22;15918;51.270;6.522;2023-01-04T06:29:10;12.00;77.70
28763;DHT22;15918;51.270;6.522;2023-01-04T06:31:35;12.00;77.80
28763;DHT22;15918;51.270;6.522;2023-01-04T06:34:01;12.00;77.80
28763;DHT22;15918;51.270;6.522;2023-01-04T06:36:27;12.00;77.80
28763;DHT22;15918;51.270;6.522;2023-01-04T06:38:58;12.00;77.80
28763;DHT22;15918;51.270;6.522;2023-01-04T06:41:25;12.00;77.80
28763;DHT22;15918;51.270;6.522;2023-01-04T06:43:51;12.00;77.90
28763;DHT22;15918;51.270;6.522;2023-01-04T06:46:17;12.10;78.00
28763;DHT22;15918;51.270;6.522;2023-01-04T06:48:43;12.10;78.10
28763;DHT22;15918;51.270;6.522;2023-01-04T06:51:09;12.10;78.10
28763;DHT22;15918;51.270;6.522;2023-01-04T06:53:34;12.10;78.20
28763;DHT22;15918;51.270;6.522;2023-01-04T06:56:00;12.10;78.30
28763;DHT22;15918;51.270;6.522;2023-01-04T06:58:25;12.10;78.30
28763;DHT22;15918;51.270;6.522;2023-01-04T07:00:52;12.10;78.30
28763;DHT22;15918;51.270;6.522;2023-01-04T07:03:18;12.10;78.30
28763;DHT22;15918;51.270;6.522;2023-01-04T07:05:44;12.10;78.30
28763;DHT22;15918;51.270;6.522;2023-01-04T07:08:10;12.10;78.30
28763;DHT22;15918;51.270;6.522;2023-01-04T07:10:36;12.10;78.30
28763;DHT22;15918;51.270;6.522;2023-01-04T07:13:02;12.10;78.30
28763;DHT22;15918;51.270;6.522;2023-01-04T07:15:27;12.20;78.40
28763;DHT22;15918;51.270;6.522;2023-01-04T07:17:53;12.20;78.50
28763;DHT22;15918;51.270;6.522;2023-01-04T07:20:19;12.20;78.50
28763;DHT22;15918;51.270;6.522;2023-01-04T07:22:44;12.10;78.40
28763;DHT22;15918;51.270;6.522;2023-01-04T07:25:10;12.20;78.50
28763;DHT22;15918;51.270;6.522;2023-01-04T07:27:36;12.20;78.40
28763;DHT22;15918;51.270;6.522;2023-01-04T07:30:01;12.20;78.40
28763;DHT22;15918;51.270;6.522;2023-01-04T07:32:27;12.20;78.40
28763;DHT22;15918;51.270;6.522;2023-01-04T07:34:53;12.20;78.50
28763;DHT22;15918;51.270;6.522;2023-01-04T07:37:18;12.20;78.40
28763;DHT22;15918;51.270;6.522;2023-01-04T07:39:44;12.20;78.50
28763;DHT22;15918;51.270;6.522;2023-01-04T07:42:10;12.30;78.50
28763;DHT22;15918;51.270;6.522;2023-01-04T07:44:36;12.20;78.50
28763;DHT22;15918;51.270;6.522;2023-01-04T07:47:02;12.20;78.60
28763;DHT22;15918;51.270;6.522;2023-01-04T07:49:28;12.30;78.70
28763;DHT22;15918;51.270;6.522;2023-01-04T07:51:54;12.30;78.70
28763;DHT22;15918;51.270;6.522;2023-01-04T07:54:19;12.30;78.70
28763;DHT22;15918;51.270;6.522;2023-01-04T07:56:46;12.30;78.80
28763;DHT22;15918;51.270;6.522;2023-01-04T07:59:13;12.30;78.80
28763;DHT22;15918;51.270;6.522;2023-01-04T08:01:39;12.40;78.80
28763;DHT22;15918;51.270;6.522;2023-01-04T08:04:08;12.30;78.70
28763;DHT22;15918;51.270;6.522;2023-01-04T08:06:34;12.30;78.80
28763;DHT22;15918;51.270;6.522;2023-01-04T08:09:01;12.40;78.90
28763;DHT22;15918;51.270;6.522;2023-01-04T08:11:27;12.30;78.80
28763;DHT22;15918;51.270;6.522;2023-01-04T08:13:53;12.30;78.80
28763;DHT22;15918;51.270;6.522;2023-01-04T08:16:27;12.40;78.90
28763;DHT22;15918;51.270;6.522;2023-01-04T08:18:57;12.40;78.90
28763;DHT22;15918;51.270;6.522;2023-01-04T08:21:24;12.30;78.90
28763;DHT22;15918;51.270;6.522;2023-01-04T08:23:51;12.40;79.00
28763;DHT22;15918;51.270;6.522;2023-01-04T08:26:17;12.30;78.90
28763;DHT22;15918;51.270;6.522;2023-01-04T08:28:43;12.40;79.00
28763;DHT22;15918;51.270;6.522;2023-01-04T08:31:12;12.40;78.90
28763;DHT22;15918;51.270;6.522;2023-01-04T08:33:39;12.40;78.90
28763;DHT22;15918;51.270;6.522;2023-01-04T08:38:45;12.40;79.00
28763;DHT22;15918;51.270;6.522;2023-01-04T08:41:11;12.40;79.10
28763;DHT22;15918;51.270;6.522;2023-01-04T08:43:37;12.40;79.20
28763;DHT22;15918;51.270;6.522;2023-01-04T08:46:03;12.40;79.20
28763;DHT22;15918;51.270;6.522;2023-01-04T08:48:30;12.40;79.40
28763;DHT22;15918;51.270;6.522;2023-01-04T08:51:00;12.40;79.40
28763;DHT22;15918;51.270;6.522;2023-01-04T08:53:26;12.50;79.60
28763;DHT22;15918;51.270;6.522;2023-01-04T08:55:52;12.40;79.60
28763;DHT22;15918;51.270;6.522;2023-01-04T08:58:18;12.40;79.60
28763;DHT22;15918;51.270;6.522;2023-01-04T09:00:44;12.40;79.60
28763;DHT22;15918;51.270;6.522;2023-01-04T09:03:10;12.40;79.70
28763;DHT22;15918;51.270;6.522;2023-01-04T09:05:36;12.40;79.80
28763;DHT22;15918;51.270;6.522;2023-01-04T09:08:02;12.50;79.80
28763;DHT22;15918;51.270;6.522;2023-01-04T09:10:28;12.50;79.90
28763;DHT22;15918;51.270;6.522;2023-01-04T09:12:53;12.50;79.90
28763;DHT22;15918;51.270;6.522;2023-01-04T09:15:19;12.50;79.90
28763;DHT22;15918;51.270;6.522;2023-01-04T09:17:45;12.50;79.90
28763;DHT22;15918;51.270;6.522;2023-01-04T09:20:11;12.50;79.90
28763;DHT22;15918;51.270;6.522;2023-01-04T09:22:36;12.50;79.90
28763;DHT22;15918;51.270;6.522;2023-01-04T09:25:02;12.50;79.80
28763;DHT22;15918;51.270;6.522;2023-01-04T09:27:30;12.50;79.80
28763;DHT22;15918;51.270;6.522;2023-01-04T09:29:56;12.50;79.90
28763;DHT22;15918;51.270;6.522;2023-01-04T09:32:22;12.50;79.80
28763;DHT22;15918;51.270;6.522;2023-01-04T09:34:47;12.50;79.80
28763;DHT22;15918;51.270;6.522;2023-01-04T09:37:13;12.50;79.70
28763;DHT22;15918;51.270;6.522;2023-01-04T09:39:39;12.60;79.80
28763;DHT22;15918;51.270;6.522;2023-01-04T09:44:51;12.60;79.70
28763;DHT22;15918;51.270;6.522;2023-01-04T09:47:21;12.60;79.70
28763;DHT22;15918;51.270;6.522;2023-01-04T09:49:57;12.60;79.70
28763;DHT22;15918;51.270;6.522;2023-01-04T09:55:37;12.60;79.80
28763;DHT22;15918;51.270;6.522;2023-01-04T09:58:16;12.60;80.00
28763;DHT22;15918;51.270;6.522;2023-01-04T10:00:56;12.60;80.00
28763;DHT22;15918;51.270;6.522;2023-01-04T10:03:31;12.60;80.00
28763;DHT22;15918;51.270;6.522;2023-01-04T10:05:57;12.60;80.10
28763;DHT22;15918;51.270;6.522;2023-01-04T10:08:23;12.60;80.10
28763;DHT22;15918;51.270;6.522;2023-01-04T10:11:23;12.60;80.10
28763;DHT22;15918;51.270;6.522;2023-01-04T10:14:10;12.60;80.10
28763;DHT22;15918;51.270;6.522;2023-01-04T10:22:14;12.60;80.30
28763;DHT22;15918;51.270;6.522;2023-01-04T10:30:07;12.70;80.70
28763;DHT22;15918;51.270;6.522;2023-01-04T10:32:43;12.70;80.80
28763;DHT22;15918;51.270;6.522;2023-01-04T10:35:19;12.70;80.90
28763;DHT22;15918;51.270;6.522;2023-01-04T10:37:48;12.70;80.90
28763;DHT22;15918;51.270;6.522;2023-01-04T10:40:16;12.70;81.00
28763;DHT22;15918;51.270;6.522;2023-01-04T10:42:59;12.70;81.00
28763;DHT22;15918;51.270;6.522;2023-01-04T10:48:36;12.70;81.00
28763;DHT22;15918;51.270;6.522;2023-01-04T10:51:05;12.70;81.10
28763;DHT22;15918;51.270;6.522;2023-01-04T10:54:01;12.80;81.20
28763;DHT22;15918;51.270;6.522;2023-01-04T10:56:29;12.80;81.20
28763;DHT22;15918;51.270;6.522;2023-01-04T11:04:57;12.80;81.40
28763;DHT22;15918;51.270;6.522;2023-01-04T11:07:26;12.80;82.10
28763;DHT22;15918;51.270;6.522;2023-01-04T11:09:56;12.80;81.50
28763;DHT22;15918;51.270;6.522;2023-01-04T11:12:23;12.80;81.50
28763;DHT22;15918;51.270;6.522;2023-01-04T11:14:50;12.90;81.60
28763;DHT22;15918;51.270;6.522;2023-01-04T11:17:16;12.90;81.50
28763;DHT22;15918;51.270;6.522;2023-01-04T11:19:43;12.90;81.60
28763;DHT22;15918;51.270;6.522;2023-01-04T11:22:14;12.90;81.60
28763;DHT22;15918;51.270;6.522;2023-01-04T11:24:43;12.90;81.60
28763;DHT22;15918;51.270;6.522;2023-01-04T11:27:14;12.90;81.70
28763;DHT22;15918;51.270;6.522;2023-01-04T11:29:49;12.90;81.70
28763;DHT22;15918;51.270;6.522;2023-01-04T11:32:38;12.90;81.60
28763;DHT22;15918;51.270;6.522;2023-01-04T11:35:07;13.00;81.60
28763;DHT22;15918;51.270;6.522;2023-01-04T11:37:35;12.90;81.70
28763;DHT22;15918;51.270;6.522;2023-01-04T11:42:44;13.00;81.80
28763;DHT22;15918;51.270;6.522;2023-01-04T11:45:30;13.00;81.90
28763;DHT22;15918;51.270;6.522;2023-01-04T11:47:57;13.00;81.80
28763;DHT22;15918;51.270;6.522;2023-01-04T11:50:46;13.00;81.90
28763;DHT22;15918;51.270;6.522;2023-01-04T11:58:41;13.00;82.00
28763;DHT22;15918;51.270;6.522;2023-01-04T12:01:19;13.00;82.10
28763;DHT22;15918;51.270;6.522;2023-01-04T12:03:45;13.00;82.00
28763;DHT22;15918;51.270;6.522;2023-01-04T12:08:43;13.00;82.00
28763;DHT22;15918;51.270;6.522;2023-01-04T12:11:18;13.00;82.10
28763;DHT22;15918;51.270;6.522;2023-01-04T12:13:44;13.00;82.10
28763;DHT22;15918;51.270;6.522;2023-01-04T12:16:16;13.00;82.20
28763;DHT22;15918;51.270;6.522;2023-01-04T12:18:44;13.10;82.40
28763;DHT22;15918;51.270;6.522;2023-01-04T12:21:24;13.10;82.40
28763;DHT22;15918;51.270;6.522;2023-01-04T12:23:52;13.10;82.40
28763;DHT22;15918;51.270;6.522;2023-01-04T12:26:19;13.10;82.50
28763;DHT22;15918;51.270;6.522;2023-01-04T12:28:47;13.10;82.60
28763;DHT22;15918;51.270;6.522;2023-01-04T12:39:26;13.10;82.80
28763;DHT22;15918;51.270;6.522;2023-01-04T12:52:42;13.10;83.20
28763;DHT22;15918;51.270;6.522;2023-01-04T12:58:02;13.20;83.20
28763;DHT22;15918;51.270;6.522;2023-01-04T13:08:12;13.20;83.20
28763;DHT22;15918;51.270;6.522;2023-01-04T13:10:48;13.20;83.20
28763;DHT22;15918;51.270;6.522;2023-01-04T13:18:55;13.20;83.20
28763;DHT22;15918;51.270;6.522;2023-01-04T13:21:37;13.20;83.20
28763;DHT22;15918;51.270;6.522;2023-01-04T13:24:15;13.20;83.10
28763;DHT22;15918;51.270;6.522;2023-01-04T13:26:43;13.20;84.00
28763;DHT22;15918;51.270;6.522;2023-01-04T13:29:30;13.20;83.40
28763;DHT22;15918;51.270;6.522;2023-01-04T13:32:42;13.20;83.30
28763;DHT22;15918;51.270;6.522;2023-01-04T13:34:55;13.30;83.40
28763;DHT22;15918;51.270;6.522;2023-01-04T13:37:43;13.30;83.50
28763;DHT22;15918;51.270;6.522;2023-01-04T13:40:26;13.30;83.40
28763;DHT22;15918;51.270;6.522;2023-01-04T13:46:13;13.30;83.50
28763;DHT22;15918;51.270;6.522;2023-01-04T13:48:44;13.30;83.50
28763;DHT22;15918;51.270;6.522;2023-01-04T13:51:13;13.30;83.50
28763;DHT22;15918;51.270;6.522;2023-01-04T13:53:39;13.30;83.50
28763;DHT22;15918;51.270;6.522;2023-01-04T13:56:13;13.30;83.40
28763;DHT22;15918;51.270;6.522;2023-01-04T13:58:42;13.30;83.40
28763;DHT22;15918;51.270;6.522;2023-01-04T14:01:26;13.30;83.40
28763;DHT22;15918;51.270;6.522;2023-01-04T14:03:58;13.40;83.30
28763;DHT22;15918;51.270;6.522;2023-01-04T14:09:02;13.40;83.40
28763;DHT22;15918;51.270;6.522;2023-01-04T14:11:41;13.40;83.40
28763;DHT22;15918;51.270;6.522;2023-01-04T14:20:30;13.30;83.50
28763;DHT22;15918;51.270;6.522;2023-01-04T14:22:52;13.30;83.40
28763;DHT22;15918;51.270;6.522;2023-01-04T14:25:35;13.30;83.60
28763;DHT22;15918;51.270;6.522;2023-01-04T14:36:11;13.40;83.80
28763;DHT22;15918;51.270;6.522;2023-01-04T14:43:51;13.40;84.00
28763;DHT22;15918;51.270;6.522;2023-01-04T14:46:21;13.40;84.00
28763;DHT22;15918;51.270;6.522;2023-01-04T14:48:47;13.40;84.00
28763;DHT22;15918;51.270;6.522;2023-01-04T14:51:18;13.40;84.00
28763;DHT22;15918;51.270;6.522;2023-01-04T14:53:45;13.40;84.00
28763;DHT22;15918;51.270;6.522;2023-01-04T14:56:15;13.50;84.00
28763;DHT22;15918;51.270;6.522;2023-01-04T14:58:41;13.50;84.00
28763;DHT22;15918;51.270;6.522;2023-01-04T15:01:08;13.50;83.90
28763;DHT22;15918;51.270;6.522;2023-01-04T15:03:34;13.50;83.90
28763;DHT22;15918;51.270;6.522;2023-01-04T15:05:59;13.50;83.90
28763;DHT22;15918;51.270;6.522;2023-01-04T15:08:25;13.50;83.90
28763;DHT22;15918;51.270;6.522;2023-01-04T15:10:51;13.50;83.70
28763;DHT22;15918;51.270;6.522;2023-01-04T15:13:16;13.50;83.70
28763;DHT22;15918;51.270;6.522;2023-01-04T15:15:42;13.50;83.60
28763;DHT22;15918;51.270;6.522;2023-01-04T15:18:08;13.50;83.50
28763;DHT22;15918;51.270;6.522;2023-01-04T15:20:34;13.50;83.50
28763;DHT22;15918;51.270;6.522;2023-01-04T15:22:59;13.50;83.50
28763;DHT22;15918;51.270;6.522;2023-01-04T15:25:25;13.60;83.60
28763;DHT22;15918;51.270;6.522;2023-01-04T15:27:54;13.60;83.50
28763;DHT22;15918;51.270;6.522;2023-01-04T15:30:20;13.60;83.50
28763;DHT22;15918;51.270;6.522;2023-01-04T15:32:46;13.60;83.40
28763;DHT22;15918;51.270;6.522;2023-01-04T15:35:12;13.60;83.40
28763;DHT22;15918;51.270;6.522;2023-01-04T15:37:41;13.60;83.40
28763;DHT22;15918;51.270;6.522;2023-01-04T15:40:07;13.60;83.40
28763;DHT22;15918;51.270;6.522;2023-01-04T15:42:33;13.60;83.30
28763;DHT22;15918;51.270;6.522;2023-01-04T15:45:17;13.60;83.30
28763;DHT22;15918;51.270;6.522;2023-01-04T15:47:43;13.60;83.30
28763;DHT22;15918;51.270;6.522;2023-01-04T15:50:08;13.60;83.40
28763;DHT22;15918;51.270;6.522;2023-01-04T15:52:34;13.60;83.40
28763;DHT22;15918;51.270;6.522;2023-01-04T15:54:59;13.60;83.30
28763;DHT22;15918;51.270;6.522;2023-01-04T15:57:25;13.60;83.30
28763;DHT22;15918;51.270;6.522;2023-01-04T15:59:50;13.60;83.40
28763;DHT22;15918;51.270;6.522;2023-01-04T16:02:16;13.60;83.30
28763;DHT22;15918;51.270;6.522;2023-01-04T16:04:42;13.60;84.10
28763;DHT22;15918;51.270;6.522;2023-01-04T16:07:10;13.60;83.40
28763;DHT22;15918;51.270;6.522;2023-01-04T16:09:35;13.60;83.40
28763;DHT22;15918;51.270;6.522;2023-01-04T16:12:02;13.60;83.40
28763;DHT22;15918;51.270;6.522;2023-01-04T16:14:46;13.60;83.40
28763;DHT22;15918;51.270;6.522;2023-01-04T16:17:12;13.60;83.60
28763;DHT22;15918;51.270;6.522;2023-01-04T16:19:37;13.60;83.60
28763;DHT22;15918;51.270;6.522;2023-01-04T16:22:03;13.60;83.60
28763;DHT22;15918;51.270;6.522;2023-01-04T16:24:29;13.60;83.70
28763;DHT22;15918;51.270;6.522;2023-01-04T16:26:54;13.60;83.80
28763;DHT22;15918;51.270;6.522;2023-01-04T16:29:20;13.60;83.80
28763;DHT22;15918;51.270;6.522;2023-01-04T16:31:45;13.60;83.80
28763;DHT22;15918;51.270;6.522;2023-01-04T16:34:12;13.60;83.90
28763;DHT22;15918;51.270;6.522;2023-01-04T16:36:38;13.60;84.00
28763;DHT22;15918;51.270;6.522;2023-01-04T16:39:04;13.60;84.00
28763;DHT22;15918;51.270;6.522;2023-01-04T16:41:30;13.60;84.00
28763;DHT22;15918;51.270;6.522;2023-01-04T16:43:56;13.60;84.00
28763;DHT22;15918;51.270;6.522;2023-01-04T16:46:29;13.60;84.00
28763;DHT22;15918;51.270;6.522;2023-01-04T16:49:04;13.60;84.10
28763;DHT22;15918;51.270;6.522;2023-01-04T16:51:33;13.60;84.10
28763;DHT22;15918;51.270;6.522;2023-01-04T16:54:01;13.60;84.10
28763;DHT22;15918;51.270;6.522;2023-01-04T16:56:27;13.60;84.10
28763;DHT22;15918;51.270;6.522;2023-01-04T16:58:53;13.60;84.10
28763;DHT22;15918;51.270;6.522;2023-01-04T17:01:32;13.60;84.10
28763;DHT22;15918;51.270;6.522;2023-01-04T17:04:00;13.70;84.00
28763;DHT22;15918;51.270;6.522;2023-01-04T17:06:29;13.60;84.00
28763;DHT22;15918;51.270;6.522;2023-01-04T17:08:56;13.70;84.00
28763;DHT22;15918;51.270;6.522;2023-01-04T17:11:24;13.70;84.00
28763;DHT22;15918;51.270;6.522;2023-01-04T17:13:50;13.70;83.80
28763;DHT22;15918;51.270;6.522;2023-01-04T17:16:16;13.70;83.80
28763;DHT22;15918;51.270;6.522;2023-01-04T17:18:42;13.70;83.70
28763;DHT22;15918;51.270;6.522;2023-01-04T17:21:13;13.70;83.50
28763;DHT22;15918;51.270;6.522;2023-01-04T17:23:42;13.70;83.40
28763;DHT22;15918;51.270;6.522;2023-01-04T17:26:11;13.70;83.30
28763;DHT22;15918;51.270;6.522;2023-01-04T17:28:38;13.70;83.20
28763;DHT22;15918;51.270;6.522;2023-01-04T17:31:05;13.70;83.10
28763;DHT22;15918;51.270;6.522;2023-01-04T17:33:31;13.70;83.00
28763;DHT22;15918;51.270;6.522;2023-01-04T17:36:01;13.60;82.90
28763;DHT22;15918;51.270;6.522;2023-01-04T17:38:27;13.60;82.80
28763;DHT22;15918;51.270;6.522;2023-01-04T17:40:52;13.60;82.70
28763;DHT22;15918;51.270;6.522;2023-01-04T17:43:18;13.60;82.70
28763;DHT22;15918;51.270;6.522;2023-01-04T17:45:43;13.60;82.60
28763;DHT22;15918;51.270;6.522;2023-01-04T17:48:09;13.60;82.50
28763;DHT22;15918;51.270;6.522;2023-01-04T17:50:35;13.60;82.40